createdAt,value
2019-03-21T00:00:15.721Z,9.40
2019-03-21T00:02:44.660Z,9.13
2019-03-21T00:05:13.660Z,9.07
2019-03-21T00:07:42.687Z,8.73
2019-03-21T00:10:16.182Z,11.10
2019-03-21T00:12:45.470Z,10.50
2019-03-21T00:15:17.767Z,9.53
2019-03-21T00:17:48.882Z,12.20
2019-03-21T00:20:17.885Z,10.60
2019-03-21T00:22:46.797Z,12.27
2019-03-21T00:25:17.021Z,10.77
2019-03-21T00:27:46.339Z,11.60
2019-03-21T00:30:16.527Z,10.87
2019-03-21T00:32:45.560Z,9.07
2019-03-21T00:35:14.992Z,9.00
2019-03-21T00:37:43.999Z,8.17
2019-03-21T00:40:14.285Z,10.10
2019-03-21T00:42:43.355Z,8.50
2019-03-21T00:45:13.179Z,12.20
2019-03-21T00:47:42.441Z,9.03
2019-03-21T00:50:12.597Z,9.83
2019-03-21T00:52:41.633Z,8.73
2019-03-21T00:55:11.459Z,9.43
2019-03-21T00:57:40.461Z,10.10
2019-03-21T01:00:11.624Z,9.13
2019-03-21T01:02:40.559Z,9.77
2019-03-21T01:05:09.924Z,10.60
2019-03-21T01:07:39.081Z,9.50
2019-03-21T01:10:09.458Z,8.30
2019-03-21T01:12:38.511Z,9.30
2019-03-21T01:15:07.819Z,9.47
2019-03-21T01:17:36.875Z,10.07
2019-03-21T01:20:06.683Z,11.10
2019-03-21T01:22:35.637Z,10.90
2019-03-21T01:25:05.041Z,12.00
2019-03-21T01:27:34.331Z,10.10
2019-03-21T01:30:03.219Z,9.63
2019-03-21T01:32:32.157Z,11.43
2019-03-21T01:35:01.388Z,10.73
2019-03-21T01:37:30.501Z,10.30
2019-03-21T01:39:59.595Z,12.30
2019-03-21T01:42:28.717Z,12.40
2019-03-21T01:44:57.631Z,14.60
2019-03-21T01:47:26.677Z,10.57
2019-03-21T01:49:55.763Z,10.77
2019-03-21T01:52:24.869Z,11.47
2019-03-21T01:54:54.013Z,10.23
2019-03-21T01:57:23.166Z,12.33
2019-03-21T01:59:52.259Z,12.30
2019-03-21T02:02:21.481Z,13.17
2019-03-21T02:04:50.600Z,11.63
2019-03-21T02:07:19.887Z,12.83
2019-03-21T02:09:49.047Z,12.70
2019-03-21T02:12:18.039Z,11.37
2019-03-21T02:14:52.023Z,11.60
2019-03-21T02:17:17.889Z,11.47
2019-03-21T02:19:47.011Z,11.17
2019-03-21T02:22:16.102Z,11.37
2019-03-21T02:24:45.181Z,10.17
2019-03-21T02:27:14.180Z,12.43
2019-03-21T02:29:43.227Z,11.80
2019-03-21T02:32:12.245Z,12.90
2019-03-21T02:34:41.424Z,12.47
2019-03-21T02:37:10.712Z,11.07
2019-03-21T02:39:40.139Z,11.43
2019-03-21T02:42:09.017Z,10.73
2019-03-21T02:44:38.051Z,13.53
2019-03-21T02:47:07.258Z,10.67
2019-03-21T02:49:36.202Z,10.70
2019-03-21T02:52:05.350Z,10.40
2019-03-21T02:54:34.317Z,12.50
2019-03-21T02:57:03.396Z,13.27
2019-03-21T02:59:32.492Z,12.07
2019-03-21T03:02:01.384Z,10.70
2019-03-21T03:04:30.427Z,11.57
2019-03-21T03:07:00.019Z,12.73
2019-03-21T03:09:29.582Z,12.03
2019-03-21T03:11:58.584Z,12.43
2019-03-21T03:14:27.553Z,12.27
2019-03-21T03:16:56.450Z,13.20
2019-03-21T03:19:25.405Z,12.30
2019-03-21T03:21:54.524Z,10.90
2019-03-21T03:24:24.762Z,12.30
2019-03-21T03:26:54.047Z,11.17
2019-03-21T03:29:23.372Z,13.43
2019-03-21T03:31:52.486Z,11.70
2019-03-21T03:34:21.683Z,11.77
2019-03-21T03:36:50.617Z,13.93
2019-03-21T03:39:19.602Z,12.07
2019-03-21T03:41:48.752Z,13.77
2019-03-21T03:44:17.762Z,11.03
2019-03-21T03:46:46.937Z,15.13
2019-03-21T03:49:16.122Z,12.60
2019-03-21T03:51:45.413Z,12.07
2019-03-21T03:54:14.559Z,12.50
2019-03-21T03:56:43.597Z,11.40
2019-03-21T03:59:12.632Z,12.67
2019-03-21T04:01:42.039Z,11.63
2019-03-21T04:04:11.050Z,12.40
2019-03-21T04:06:40.083Z,14.80
2019-03-21T04:09:09.496Z,12.27
2019-03-21T04:11:38.450Z,12.93
2019-03-21T04:14:07.536Z,11.33
2019-03-21T04:16:36.625Z,13.60
2019-03-21T04:19:05.780Z,12.57
2019-03-21T04:21:34.887Z,16.20
2019-03-21T04:24:04.370Z,13.00
2019-03-21T04:26:33.470Z,12.47
2019-03-21T04:29:02.764Z,11.47
2019-03-21T04:31:31.982Z,12.23
2019-03-21T04:34:02.003Z,12.87
2019-03-21T04:36:31.296Z,11.93
2019-03-21T04:39:00.529Z,13.40
2019-03-21T04:41:29.827Z,11.63
2019-03-21T04:43:58.956Z,10.80
2019-03-21T04:46:28.192Z,12.73
2019-03-21T04:48:57.395Z,12.37
2019-03-21T04:51:26.656Z,11.13
2019-03-21T04:53:55.841Z,11.93
2019-03-21T04:56:24.910Z,11.97
2019-03-21T04:58:53.959Z,11.50
2019-03-21T05:01:22.968Z,11.03
2019-03-21T05:03:52.101Z,11.07
2019-03-21T05:06:21.239Z,12.23
2019-03-21T05:08:50.476Z,11.73
2019-03-21T05:11:19.724Z,12.90
2019-03-21T05:13:48.974Z,15.00
2019-03-21T05:16:17.968Z,14.43
2019-03-21T05:18:47.522Z,14.43
2019-03-21T05:21:17.143Z,12.80
2019-03-21T05:23:46.066Z,14.00
2019-03-21T05:26:15.224Z,12.43
2019-03-21T05:28:44.340Z,14.93
2019-03-21T05:31:15.122Z,16.13
2019-03-21T05:33:44.280Z,23.47
2019-03-21T05:36:13.376Z,23.23
2019-03-21T05:38:42.352Z,18.90
2019-03-21T05:41:11.286Z,16.27
2019-03-21T05:43:42.780Z,14.37
2019-03-21T05:46:11.664Z,12.40
2019-03-21T05:48:40.681Z,14.03
2019-03-21T05:51:09.920Z,14.23
2019-03-21T05:53:39.051Z,14.73
2019-03-21T05:56:08.455Z,12.73
2019-03-21T05:58:37.640Z,13.90
2019-03-21T06:01:06.622Z,12.67
2019-03-21T06:03:46.224Z,12.73
2019-03-21T06:06:17.123Z,12.20
2019-03-21T06:08:46.218Z,14.43
2019-03-21T06:11:15.344Z,15.73
2019-03-21T06:13:44.573Z,14.07
2019-03-21T06:16:13.922Z,12.10
2019-03-21T06:18:48.339Z,14.60
2019-03-21T06:21:38.989Z,15.23
2019-03-21T06:24:32.693Z,12.10
2019-03-21T06:27:14.121Z,12.13
2019-03-21T06:29:34.935Z,13.40
2019-03-21T06:32:03.849Z,12.53
2019-03-21T06:34:32.895Z,13.80
2019-03-21T06:37:01.817Z,13.00
2019-03-21T06:39:30.791Z,15.17
2019-03-21T06:41:59.902Z,14.43
2019-03-21T06:44:28.837Z,11.47
2019-03-21T06:46:58.411Z,11.20
2019-03-21T06:49:27.581Z,10.93
2019-03-21T06:51:56.846Z,13.13
2019-03-21T06:54:25.937Z,12.53
2019-03-21T06:56:55.007Z,12.67
2019-03-21T06:59:24.171Z,12.03
2019-03-21T07:01:53.060Z,12.80
2019-03-21T07:04:21.955Z,11.83
2019-03-21T07:06:50.936Z,11.17
2019-03-21T07:09:20.107Z,11.17
2019-03-21T07:11:49.227Z,12.30
2019-03-21T07:14:18.159Z,13.73
2019-03-21T07:16:47.299Z,11.80
2019-03-21T07:19:16.289Z,12.37
2019-03-21T07:21:45.254Z,12.80
2019-03-21T07:24:14.432Z,10.93
2019-03-21T07:26:43.743Z,12.57
2019-03-21T07:29:12.899Z,14.23
2019-03-21T07:31:42.145Z,11.40
2019-03-21T07:34:11.257Z,12.53
2019-03-21T07:36:40.515Z,13.60
2019-03-21T07:39:09.672Z,11.30
2019-03-21T07:41:38.954Z,11.33
2019-03-21T07:44:07.863Z,11.13
2019-03-21T07:46:36.841Z,12.17
2019-03-21T07:49:06.148Z,13.83
2019-03-21T07:51:35.208Z,12.40
2019-03-21T07:54:04.593Z,12.00
2019-03-21T07:56:33.623Z,13.53
2019-03-21T07:59:02.658Z,15.30
2019-03-21T08:01:31.665Z,15.03
2019-03-21T08:04:02.835Z,12.37
2019-03-21T08:06:31.391Z,14.27
2019-03-21T08:09:00.445Z,13.70
2019-03-21T08:11:29.628Z,13.70
2019-03-21T08:13:58.832Z,15.63
2019-03-21T08:16:27.944Z,12.33
2019-03-21T08:18:56.932Z,16.30
2019-03-21T08:21:25.850Z,12.77
2019-03-21T08:23:54.923Z,13.97
2019-03-21T08:26:24.216Z,15.80
2019-03-21T08:28:53.235Z,15.37
2019-03-21T08:31:23.438Z,13.40
2019-03-21T08:33:52.622Z,12.37
2019-03-21T08:36:21.897Z,14.73
2019-03-21T08:38:51.236Z,13.10
2019-03-21T08:41:20.283Z,13.03
2019-03-21T08:43:49.499Z,13.67
2019-03-21T08:46:18.659Z,14.47
2019-03-21T08:48:47.785Z,14.73
2019-03-21T08:51:16.800Z,13.30
2019-03-21T08:53:45.899Z,11.47
2019-03-21T08:56:14.962Z,16.63
2019-03-21T08:58:44.047Z,14.00
2019-03-21T09:01:13.165Z,15.67
2019-03-21T09:03:42.211Z,12.60
2019-03-21T09:06:11.540Z,13.20
2019-03-21T09:08:40.566Z,11.90
2019-03-21T09:11:09.545Z,13.43
2019-03-21T09:13:38.574Z,13.87
2019-03-21T09:16:07.782Z,13.97
2019-03-21T09:18:36.986Z,12.50
2019-03-21T09:21:06.332Z,13.13
2019-03-21T09:23:35.622Z,11.20
2019-03-21T09:26:04.697Z,13.63
2019-03-21T09:28:33.798Z,14.50
2019-03-21T09:31:02.824Z,11.03
2019-03-21T09:33:31.910Z,12.60
2019-03-21T09:36:01.100Z,12.13
2019-03-21T09:38:30.332Z,11.53
2019-03-21T09:40:59.232Z,11.13
2019-03-21T09:43:28.144Z,11.57
2019-03-21T09:45:57.298Z,10.60
2019-03-21T09:48:26.408Z,11.73
2019-03-21T09:50:55.542Z,11.30
2019-03-21T09:53:24.722Z,11.90
2019-03-21T09:55:53.992Z,11.07
2019-03-21T09:58:22.914Z,12.33
2019-03-21T10:00:51.790Z,12.07
2019-03-21T10:03:20.857Z,13.57
2019-03-21T10:05:49.892Z,10.37
2019-03-21T10:08:19.000Z,10.83
2019-03-21T10:10:47.985Z,9.57
2019-03-21T10:13:16.869Z,9.83
2019-03-21T10:15:45.816Z,10.03
2019-03-21T10:18:15.156Z,10.67
2019-03-21T10:20:44.314Z,12.80
2019-03-21T10:23:13.504Z,11.60
2019-03-21T10:25:42.497Z,11.90
2019-03-21T10:28:11.538Z,12.17
2019-03-21T10:30:41.206Z,10.83
2019-03-21T10:33:10.934Z,13.07
2019-03-21T10:35:40.502Z,9.87
2019-03-21T10:38:09.802Z,10.13
2019-03-21T10:40:38.934Z,10.57
2019-03-21T10:43:10.379Z,11.23
2019-03-21T10:45:38.870Z,10.47
2019-03-21T10:48:07.798Z,10.90
2019-03-21T10:50:37.694Z,10.77
2019-03-21T10:53:07.530Z,11.00
2019-03-21T10:55:36.644Z,10.20
2019-03-21T10:58:06.346Z,10.23
2019-03-21T11:00:35.482Z,10.33
2019-03-21T11:03:04.750Z,10.97
2019-03-21T11:05:33.977Z,10.27
2019-03-21T11:08:02.944Z,11.57
2019-03-21T11:10:31.879Z,10.53
2019-03-21T11:13:00.891Z,9.67
2019-03-21T11:15:30.034Z,11.47
2019-03-21T11:17:59.228Z,11.00
2019-03-21T11:20:29.335Z,14.60
2019-03-21T11:22:58.619Z,10.13
2019-03-21T11:25:27.845Z,10.30
2019-03-21T11:27:57.163Z,12.73
2019-03-21T11:30:30.151Z,10.37
2019-03-21T11:32:59.499Z,10.17
2019-03-21T11:35:28.699Z,10.87
2019-03-21T11:37:57.547Z,9.93
2019-03-21T11:40:26.509Z,10.20
2019-03-21T11:42:55.598Z,9.90
2019-03-21T11:45:24.659Z,11.30
2019-03-21T11:47:54.059Z,10.23
2019-03-21T11:50:23.268Z,9.93
2019-03-21T11:52:52.302Z,11.37
2019-03-21T11:55:21.620Z,11.27
2019-03-21T11:57:50.677Z,10.80
2019-03-21T12:00:19.546Z,10.30
2019-03-21T12:02:48.612Z,10.97
2019-03-21T12:05:17.811Z,10.00
2019-03-21T12:07:46.911Z,9.50
2019-03-21T12:10:16.685Z,11.13
2019-03-21T12:12:45.882Z,9.97
2019-03-21T12:15:14.869Z,10.77
2019-03-21T12:17:43.897Z,9.47
2019-03-21T12:20:13.352Z,9.90
2019-03-21T12:22:42.205Z,9.40
2019-03-21T12:25:11.425Z,11.70
2019-03-21T12:27:40.341Z,10.03
2019-03-21T12:30:09.819Z,10.37
2019-03-21T12:32:38.969Z,10.27
2019-03-21T12:35:08.124Z,10.80
2019-03-21T12:37:37.234Z,9.40
2019-03-21T12:40:07.051Z,9.73
2019-03-21T12:42:36.247Z,11.90
2019-03-21T12:45:06.763Z,9.73
2019-03-21T12:47:36.075Z,10.27
2019-03-21T12:50:06.510Z,10.30
2019-03-21T12:55:07.313Z,9.40
2019-03-21T12:57:36.344Z,10.00
2019-03-21T13:00:08.968Z,10.20
2019-03-21T13:02:37.852Z,10.10
2019-03-21T13:05:07.344Z,11.17
2019-03-21T13:07:13.300Z,10.03
2019-03-21T13:07:36.339Z,9.90
2019-03-21T13:10:05.895Z,14.30
2019-03-21T13:12:34.743Z,9.83
2019-03-21T13:15:03.933Z,18.80
2019-03-21T13:17:32.951Z,14.23
2019-03-21T13:20:01.869Z,10.80
2019-03-21T13:22:31.011Z,11.87
2019-03-21T13:25:00.345Z,13.97
2019-03-21T13:27:29.476Z,10.87
2019-03-21T13:29:58.699Z,11.77
2019-03-21T13:32:27.594Z,13.40
2019-03-21T13:34:56.452Z,14.30
2019-03-21T13:37:25.462Z,13.73
2019-03-21T13:39:54.743Z,10.47
2019-03-21T13:42:23.743Z,9.90
2019-03-21T13:44:52.650Z,20.50
2019-03-21T13:47:21.631Z,12.10
2019-03-21T13:49:50.711Z,10.30
2019-03-21T13:52:19.592Z,13.07
2019-03-21T13:54:48.991Z,11.57
2019-03-21T13:57:18.071Z,10.73
2019-03-21T13:59:47.053Z,10.97
2019-03-21T14:02:16.002Z,11.23
2019-03-21T14:04:45.252Z,13.23
2019-03-21T14:07:14.436Z,18.60
2019-03-21T14:09:43.520Z,12.50
2019-03-21T14:12:12.496Z,11.03
2019-03-21T14:14:41.610Z,11.97
2019-03-21T14:17:21.353Z,10.63
2019-03-21T14:19:41.446Z,13.10
2019-03-21T14:22:10.396Z,12.00
2019-03-21T14:24:39.575Z,10.50
2019-03-21T14:27:08.864Z,11.10
2019-03-21T14:29:37.922Z,11.67
2019-03-21T14:32:07.296Z,14.30
2019-03-21T14:34:36.298Z,14.03
2019-03-21T14:37:05.217Z,13.77
2019-03-21T14:39:34.521Z,12.23
2019-03-21T14:42:03.548Z,12.60
2019-03-21T14:44:32.592Z,12.60
2019-03-21T14:47:01.587Z,12.53
2019-03-21T14:49:30.808Z,12.90
2019-03-21T14:52:00.180Z,11.33
2019-03-21T14:54:29.211Z,11.00
2019-03-21T14:56:58.352Z,11.17
2019-03-21T14:59:27.326Z,12.07
2019-03-21T15:01:56.328Z,11.83
2019-03-21T15:04:25.756Z,12.50
2019-03-21T15:06:54.937Z,12.73
2019-03-21T15:09:23.972Z,12.70
2019-03-21T15:11:53.394Z,12.87
2019-03-21T15:14:22.600Z,13.70
2019-03-21T15:16:51.683Z,13.40
2019-03-21T15:19:20.814Z,11.87
2019-03-21T15:21:49.795Z,12.47
2019-03-21T15:24:18.975Z,12.40
2019-03-21T15:26:51.003Z,11.67
2019-03-21T15:29:18.858Z,11.57
2019-03-21T15:31:47.852Z,11.80
2019-03-21T15:34:16.814Z,11.67
2019-03-21T15:36:46.185Z,12.03
2019-03-21T15:39:15.182Z,12.37
2019-03-21T15:41:44.213Z,13.30
2019-03-21T15:44:13.116Z,12.60
2019-03-21T15:46:42.218Z,11.60
2019-03-21T15:49:11.171Z,12.27
2019-03-21T15:51:40.300Z,12.03
2019-03-21T15:54:09.340Z,11.23
2019-03-21T15:56:38.382Z,12.17
2019-03-21T15:59:07.276Z,12.07
2019-03-21T16:01:36.326Z,12.03
2019-03-21T16:04:05.655Z,12.20
2019-03-21T16:06:34.681Z,12.07
2019-03-21T16:09:04.373Z,12.57
2019-03-21T16:11:33.378Z,12.33
2019-03-21T16:14:02.495Z,13.10
2019-03-21T16:16:31.784Z,12.47
2019-03-21T16:19:01.028Z,12.87
2019-03-21T16:21:30.160Z,12.33
2019-03-21T16:24:04.975Z,12.40
2019-03-21T16:26:29.767Z,12.27
2019-03-21T16:28:58.750Z,12.03
2019-03-21T16:31:27.920Z,13.03
2019-03-21T16:33:57.004Z,11.77
2019-03-21T16:36:26.007Z,11.93
2019-03-21T16:38:55.009Z,12.30
2019-03-21T16:41:24.205Z,12.27
2019-03-21T16:43:53.259Z,11.60
2019-03-21T16:46:22.465Z,13.23
2019-03-21T16:48:51.536Z,12.67
2019-03-21T16:51:20.662Z,13.27
2019-03-21T16:53:49.782Z,11.63
2019-03-21T16:56:18.832Z,11.63
2019-03-21T16:58:47.824Z,11.07
2019-03-21T17:01:16.726Z,12.10
2019-03-21T17:03:45.782Z,12.57
2019-03-21T17:06:14.699Z,13.17
2019-03-21T17:08:43.643Z,12.27
2019-03-21T17:11:12.753Z,14.57
2019-03-21T17:13:42.232Z,13.57
2019-03-21T17:16:11.299Z,14.77
2019-03-21T17:18:40.484Z,12.87
2019-03-21T17:21:09.905Z,13.13
2019-03-21T17:23:39.055Z,12.60
2019-03-21T17:26:08.176Z,13.03
2019-03-21T17:28:37.214Z,13.53
2019-03-21T17:31:06.265Z,12.53
2019-03-21T17:33:35.403Z,12.33
2019-03-21T17:36:04.359Z,12.70
2019-03-21T17:38:33.395Z,14.80
2019-03-21T17:41:02.433Z,12.10
2019-03-21T17:43:31.537Z,12.57
2019-03-21T17:46:00.679Z,13.67
2019-03-21T17:48:29.953Z,12.33
2019-03-21T17:50:59.049Z,13.27
2019-03-21T17:53:28.231Z,13.23
2019-03-21T17:55:57.621Z,14.37
2019-03-21T17:58:28.651Z,14.03
2019-03-21T18:00:59.268Z,12.20
2019-03-21T18:03:28.939Z,12.70
2019-03-21T18:05:57.940Z,13.30
2019-03-21T18:08:26.985Z,12.77
2019-03-21T18:10:57.333Z,13.27
2019-03-21T18:13:26.513Z,12.53
2019-03-21T18:15:55.482Z,11.90
2019-03-21T18:18:24.438Z,12.63
2019-03-21T18:20:53.559Z,13.37
2019-03-21T18:23:22.473Z,12.23
2019-03-21T18:25:51.539Z,13.40
2019-03-21T18:28:20.579Z,13.67
2019-03-21T18:30:49.585Z,12.40
2019-03-21T18:33:19.366Z,13.73
2019-03-21T18:35:48.596Z,12.90
2019-03-21T18:38:17.578Z,12.10
2019-03-21T18:40:46.581Z,12.37
2019-03-21T18:43:15.599Z,12.00
2019-03-21T18:45:44.872Z,12.30
2019-03-21T18:48:14.212Z,11.80
2019-03-21T18:50:43.223Z,12.60
2019-03-21T18:53:12.175Z,12.47
2019-03-21T18:55:41.292Z,13.33
2019-03-21T18:58:10.379Z,13.73
2019-03-21T19:00:39.636Z,15.40
2019-03-21T19:03:08.727Z,14.07
2019-03-21T19:05:37.819Z,13.70
2019-03-21T19:08:07.082Z,13.57
2019-03-21T19:10:36.011Z,16.53
2019-03-21T19:13:05.179Z,15.27
2019-03-21T19:15:34.381Z,14.13
2019-03-21T19:18:03.345Z,15.13
2019-03-21T19:20:32.213Z,14.97
2019-03-21T19:23:01.235Z,14.67
2019-03-21T19:25:30.317Z,16.27
2019-03-21T19:27:59.178Z,16.07
2019-03-21T19:30:28.379Z,14.63
2019-03-21T19:32:57.383Z,16.97
2019-03-21T19:35:26.402Z,17.97
2019-03-21T19:37:55.553Z,19.07
2019-03-21T19:40:24.742Z,19.33
2019-03-21T19:42:53.654Z,17.23
2019-03-21T19:45:22.763Z,18.47
2019-03-21T19:47:51.845Z,17.20
2019-03-21T19:50:22.012Z,14.60
2019-03-21T19:52:51.015Z,16.57
2019-03-21T19:55:30.209Z,15.47
2019-03-21T19:57:50.682Z,16.00
2019-03-21T20:00:20.410Z,14.27
2019-03-21T20:02:49.510Z,15.93
2019-03-21T20:05:18.982Z,14.73
2019-03-21T20:07:48.205Z,20.97
2019-03-21T20:10:17.100Z,21.60
2019-03-21T20:12:46.141Z,17.93
2019-03-21T20:15:15.382Z,19.93
2019-03-21T20:17:45.032Z,18.53
2019-03-21T20:20:14.232Z,21.23
2019-03-21T20:22:43.442Z,19.87
2019-03-21T20:25:12.796Z,20.60
2019-03-21T20:27:41.995Z,19.53
2019-03-21T20:30:12.574Z,23.90
2019-03-21T20:32:41.662Z,20.30
2019-03-21T20:35:10.610Z,20.57
2019-03-21T20:37:39.862Z,22.47
2019-03-21T20:40:09.292Z,25.87
2019-03-21T20:42:38.250Z,25.17
2019-03-21T20:45:07.862Z,25.67
2019-03-21T20:47:36.895Z,17.33
2019-03-21T20:50:06.128Z,17.10
2019-03-21T20:52:35.354Z,20.00
2019-03-21T20:55:05.006Z,19.20
2019-03-21T20:57:34.008Z,17.73
2019-03-21T21:00:03.183Z,17.33
2019-03-21T21:02:32.298Z,17.57
2019-03-21T21:05:01.240Z,18.37
2019-03-21T21:07:30.676Z,16.80
2019-03-21T21:09:59.711Z,18.53
2019-03-21T21:12:28.882Z,18.37
2019-03-21T21:14:58.168Z,17.30
2019-03-21T21:17:27.284Z,18.20
2019-03-21T21:19:56.472Z,18.73
2019-03-21T21:22:27.308Z,19.27
2019-03-21T21:24:56.312Z,20.93
2019-03-21T21:27:25.624Z,18.87
2019-03-21T21:29:54.746Z,17.83
2019-03-21T21:32:23.708Z,18.80
2019-03-21T21:34:54.615Z,18.60
2019-03-21T21:37:23.448Z,19.23
2019-03-21T21:39:52.477Z,19.70
2019-03-21T21:42:21.510Z,19.87
2019-03-21T21:44:50.650Z,20.40
2019-03-21T21:47:19.868Z,18.93
2019-03-21T21:49:49.127Z,20.33
2019-03-21T21:52:18.082Z,18.30
2019-03-21T21:54:49.182Z,21.50
2019-03-21T21:57:17.852Z,20.30
2019-03-21T21:59:46.970Z,20.73
2019-03-21T22:02:16.262Z,20.90
2019-03-21T22:04:45.434Z,19.33
2019-03-21T22:07:14.596Z,19.67
2019-03-21T22:09:43.646Z,19.13
2019-03-21T22:12:12.686Z,18.17
2019-03-21T22:14:41.714Z,18.23
2019-03-21T22:17:10.652Z,19.53
2019-03-21T22:19:39.644Z,18.70
2019-03-21T22:22:08.656Z,20.77
2019-03-21T22:24:37.656Z,19.43
2019-03-21T22:27:06.672Z,18.90
2019-03-21T22:29:35.636Z,21.13
2019-03-21T22:32:04.632Z,21.67
2019-03-21T22:34:33.690Z,21.33
2019-03-21T22:37:02.840Z,20.83
2019-03-21T22:39:32.011Z,20.47
2019-03-21T22:42:01.178Z,21.00
2019-03-21T22:44:30.253Z,21.27
2019-03-21T22:46:59.216Z,21.83
2019-03-21T22:49:28.505Z,23.03
2019-03-21T22:51:57.750Z,21.50
2019-03-21T22:54:26.671Z,20.57
2019-03-21T22:56:55.770Z,22.50
2019-03-21T22:59:24.883Z,20.13
2019-03-21T23:01:54.186Z,20.67
2019-03-21T23:04:23.248Z,21.17
2019-03-21T23:06:52.364Z,20.60
2019-03-21T23:09:21.468Z,20.60
2019-03-21T23:11:50.576Z,21.13
2019-03-21T23:14:19.748Z,20.67
2019-03-21T23:16:48.844Z,21.70
2019-03-21T23:19:17.851Z,21.17
2019-03-21T23:21:46.932Z,20.57
2019-03-21T23:24:15.983Z,21.50
2019-03-21T23:26:52.719Z,19.40
2019-03-21T23:29:15.556Z,22.20
2019-03-21T23:31:44.781Z,21.23
2019-03-21T23:34:13.955Z,21.47
2019-03-21T23:36:44.838Z,23.13
2019-03-21T23:39:14.393Z,21.60
2019-03-21T23:41:43.382Z,22.43
2019-03-21T23:44:12.480Z,20.53
2019-03-21T23:46:41.608Z,21.57
2019-03-21T23:49:10.658Z,22.57
2019-03-21T23:51:39.698Z,22.23
2019-03-21T23:54:08.667Z,22.87
2019-03-21T23:56:37.949Z,21.57
2019-03-21T23:59:06.833Z,21.37
